sensor_id;sensor_type;location;lat;lon;timestamp;pressure;altitude;pressure_sealevel;temperature;humidity
58467;BME280;44255;49.244;7.726;2023-04-27T03:32:02;98463.03;;;7.10;69.28
58467;BME280;44255;49.244;7.726;2023-04-27T03:34:28;98467.53;;;7.05;69.71
58467;BME280;44255;49.244;7.726;2023-04-27T03:36:53;98456.78;;;7.13;69.72
58467;BME280;44255;49.244;7.726;2023-04-27T03:39:19;98460.25;;;7.17;69.73
58467;BME280;44255;49.244;7.726;2023-04-27T03:41:44;98463.53;;;7.28;69.29
58467;BME280;44255;49.244;7.726;2023-04-27T03:44:09;98459.69;;;7.43;69.39
58467;BME280;44255;49.244;7.726;2023-04-27T03:46:34;98464.56;;;7.21;69.53
58467;BME280;44255;49.244;7.726;2023-04-27T03:49:00;98469.00;;;7.20;70.65
58467;BME280;44255;49.244;7.726;2023-04-27T03:51:25;98464.94;;;7.02;70.44
58467;BME280;44255;49.244;7.726;2023-04-27T03:53:51;98467.69;;;6.97;71.18
58467;BME280;44255;49.244;7.726;2023-04-27T03:56:16;98475.03;;;6.83;72.52
58467;BME280;44255;49.244;7.726;2023-04-27T03:58:41;98465.44;;;7.21;70.20
58467;BME280;44255;49.244;7.726;2023-04-27T04:01:06;98464.72;;;7.15;69.82
58467;BME280;44255;49.244;7.726;2023-04-27T04:03:34;98472.34;;;7.29;70.20
58467;BME280;44255;49.244;7.726;2023-04-27T04:06:00;98463.41;;;7.33;70.41
58467;BME280;44255;49.244;7.726;2023-04-27T04:08:27;98468.25;;;7.14;71.68
58467;BME280;44255;49.244;7.726;2023-04-27T04:10:53;98468.13;;;7.18;70.71
58467;BME280;44255;49.244;7.726;2023-04-27T04:13:18;98474.16;;;7.26;71.07
58467;BME280;44255;49.244;7.726;2023-04-27T04:15:43;98465.22;;;7.32;70.68
58467;BME280;44255;49.244;7.726;2023-04-27T04:18:09;98469.72;;;7.27;70.26
58467;BME280;44255;49.244;7.726;2023-04-27T04:20:34;98465.53;;;6.73;72.79
58467;BME280;44255;49.244;7.726;2023-04-27T04:23:00;98469.78;;;6.81;72.81
58467;BME280;44255;49.244;7.726;2023-04-27T04:25:25;98468.50;;;7.03;72.12
58467;BME280;44255;49.244;7.726;2023-04-27T04:27:50;98468.41;;;7.06;72.20
58467;BME280;44255;49.244;7.726;2023-04-27T04:30:16;98467.75;;;6.94;72.76
58467;BME280;44255;49.244;7.726;2023-04-27T04:32:41;98465.84;;;7.03;72.46
58467;BME280;44255;49.244;7.726;2023-04-27T04:35:08;98468.44;;;7.04;71.78
58467;BME280;44255;49.244;7.726;2023-04-27T04:37:35;98471.81;;;7.11;72.00
58467;BME280;44255;49.244;7.726;2023-04-27T04:40:03;98472.81;;;7.07;71.69
58467;BME280;44255;49.244;7.726;2023-04-27T04:42:33;98466.63;;;7.06;72.38
58467;BME280;44255;49.244;7.726;2023-04-27T04:44:58;98475.31;;;7.13;71.07
58467;BME280;44255;49.244;7.726;2023-04-27T04:47:23;98467.63;;;7.01;72.14
58467;BME280;44255;49.244;7.726;2023-04-27T04:49:48;98465.72;;;7.07;71.85
58467;BME280;44255;49.244;7.726;2023-04-27T04:52:14;98470.00;;;7.15;72.04
58467;BME280;44255;49.244;7.726;2023-04-27T04:54:39;98473.47;;;7.17;70.91
58467;BME280;44255;49.244;7.726;2023-04-27T04:57:04;98479.50;;;7.23;71.64
58467;BME280;44255;49.244;7.726;2023-04-27T04:59:32;98475.56;;;7.42;71.43
58467;BME280;44255;49.244;7.726;2023-04-27T05:01:58;98485.34;;;7.39;71.13
58467;BME280;44255;49.244;7.726;2023-04-27T05:04:23;98485.50;;;7.32;70.94
58467;BME280;44255;49.244;7.726;2023-04-27T05:06:48;98481.94;;;7.33;71.62
58467;BME280;44255;49.244;7.726;2023-04-27T05:09:13;98484.81;;;7.23;72.46
58467;BME280;44255;49.244;7.726;2023-04-27T05:11:39;98485.50;;;7.32;71.82
58467;BME280;44255;49.244;7.726;2023-04-27T05:14:04;98495.00;;;7.42;71.90
58467;BME280;44255;49.244;7.726;2023-04-27T05:16:29;98494.78;;;7.51;71.72
58467;BME280;44255;49.244;7.726;2023-04-27T05:18:54;98488.22;;;7.29;72.90
58467;BME280;44255;49.244;7.726;2023-04-27T05:21:20;98491.50;;;7.40;72.33
58467;BME280;44255;49.244;7.726;2023-04-27T05:23:46;98500.22;;;7.45;72.24
58467;BME280;44255;49.244;7.726;2023-04-27T05:26:13;98493.94;;;7.49;71.88
58467;BME280;44255;49.244;7.726;2023-04-27T05:28:38;98498.28;;;7.53;71.83
58467;BME280;44255;49.244;7.726;2023-04-27T05:31:03;98503.34;;;7.63;71.25
58467;BME280;44255;49.244;7.726;2023-04-27T05:33:28;98506.00;;;7.64;71.89
58467;BME280;44255;49.244;7.726;2023-04-27T05:35:54;98512.22;;;7.60;71.99
58467;BME280;44255;49.244;7.726;2023-04-27T05:38:19;98511.06;;;7.74;72.07
58467;BME280;44255;49.244;7.726;2023-04-27T05:40:44;98508.56;;;7.67;72.47
58467;BME280;44255;49.244;7.726;2023-04-27T05:43:09;98505.75;;;7.74;71.86
58467;BME280;44255;49.244;7.726;2023-04-27T05:45:38;98507.25;;;7.86;71.94
58467;BME280;44255;49.244;7.726;2023-04-27T05:48:03;98508.88;;;7.93;71.85
58467;BME280;44255;49.244;7.726;2023-04-27T05:50:28;98512.88;;;8.09;70.82
58467;BME280;44255;49.244;7.726;2023-04-27T05:52:54;98510.25;;;8.08;70.93
58467;BME280;44255;49.244;7.726;2023-04-27T05:55:19;98507.72;;;8.03;71.06
58467;BME280;44255;49.244;7.726;2023-04-27T05:57:44;98509.03;;;8.23;70.48
58467;BME280;44255;49.244;7.726;2023-04-27T06:00:10;98514.06;;;8.34;69.89
58467;BME280;44255;49.244;7.726;2023-04-27T06:02:36;98510.81;;;8.21;69.78
58467;BME280;44255;49.244;7.726;2023-04-27T06:05:01;98518.38;;;8.38;68.85
58467;BME280;44255;49.244;7.726;2023-04-27T06:07:27;98522.00;;;8.34;69.06
58467;BME280;44255;49.244;7.726;2023-04-27T06:09:53;98523.88;;;8.30;69.67
58467;BME280;44255;49.244;7.726;2023-04-27T06:12:18;98532.84;;;8.24;69.52
58467;BME280;44255;49.244;7.726;2023-04-27T06:14:43;98531.81;;;8.30;68.91
58467;BME280;44255;49.244;7.726;2023-04-27T06:17:08;98525.72;;;8.26;69.29
58467;BME280;44255;49.244;7.726;2023-04-27T06:19:34;98527.22;;;8.37;69.48
58467;BME280;44255;49.244;7.726;2023-04-27T06:21:59;98524.16;;;8.54;68.92
58467;BME280;44255;49.244;7.726;2023-04-27T06:24:24;98530.03;;;8.67;68.31
58467;BME280;44255;49.244;7.726;2023-04-27T06:26:50;98529.28;;;8.95;68.04
58467;BME280;44255;49.244;7.726;2023-04-27T06:29:15;98530.59;;;9.11;68.03
58467;BME280;44255;49.244;7.726;2023-04-27T06:31:40;98530.75;;;9.37;65.71
58467;BME280;44255;49.244;7.726;2023-04-27T06:34:06;98533.38;;;9.38;64.60
58467;BME280;44255;49.244;7.726;2023-04-27T06:36:31;98530.28;;;9.54;65.38
58467;BME280;44255;49.244;7.726;2023-04-27T06:38:57;98529.72;;;9.73;64.14
58467;BME280;44255;49.244;7.726;2023-04-27T06:41:24;98527.66;;;9.82;63.69
58467;BME280;44255;49.244;7.726;2023-04-27T06:43:50;98527.19;;;9.96;63.23
58467;BME280;44255;49.244;7.726;2023-04-27T06:46:16;98525.91;;;10.10;62.21
58467;BME280;44255;49.244;7.726;2023-04-27T06:48:41;98529.94;;;10.22;61.20
58467;BME280;44255;49.244;7.726;2023-04-27T06:51:06;98525.94;;;10.37;60.50
58467;BME280;44255;49.244;7.726;2023-04-27T06:53:32;98530.38;;;10.36;59.59
58467;BME280;44255;49.244;7.726;2023-04-27T06:55:57;98526.34;;;10.51;57.36
58467;BME280;44255;49.244;7.726;2023-04-27T06:58:22;98524.25;;;10.61;57.43
58467;BME280;44255;49.244;7.726;2023-04-27T07:00:48;98521.16;;;10.74;56.76
58467;BME280;44255;49.244;7.726;2023-04-27T07:03:13;98519.00;;;10.85;56.36
58467;BME280;44255;49.244;7.726;2023-04-27T07:05:39;98518.75;;;10.91;55.59
58467;BME280;44255;49.244;7.726;2023-04-27T07:08:04;98521.13;;;11.01;54.55
58467;BME280;44255;49.244;7.726;2023-04-27T07:10:30;98514.34;;;11.16;55.57
58467;BME280;44255;49.244;7.726;2023-04-27T07:12:55;98515.69;;;11.28;53.76
58467;BME280;44255;49.244;7.726;2023-04-27T07:15:21;98510.25;;;11.31;52.81
58467;BME280;44255;49.244;7.726;2023-04-27T07:17:46;98517.09;;;11.38;53.59
58467;BME280;44255;49.244;7.726;2023-04-27T07:20:11;98516.97;;;11.41;54.78
58467;BME280;44255;49.244;7.726;2023-04-27T07:22:38;98512.16;;;11.51;53.11
58467;BME280;44255;49.244;7.726;2023-04-27T07:25:04;98513.56;;;11.61;53.31
58467;BME280;44255;49.244;7.726;2023-04-27T07:27:30;98508.59;;;11.74;53.40
58467;BME280;44255;49.244;7.726;2023-04-27T07:29:56;98514.25;;;11.89;54.13
58467;BME280;44255;49.244;7.726;2023-04-27T07:32:21;98507.66;;;11.99;52.91
58467;BME280;44255;49.244;7.726;2023-04-27T07:34:46;98500.69;;;12.17;55.48
58467;BME280;44255;49.244;7.726;2023-04-27T07:37:12;98504.53;;;12.32;53.20
58467;BME280;44255;49.244;7.726;2023-04-27T07:39:38;98500.44;;;12.23;51.11
58467;BME280;44255;49.244;7.726;2023-04-27T07:42:03;98503.31;;;12.41;51.21
58467;BME280;44255;49.244;7.726;2023-04-27T07:44:29;98495.56;;;12.56;52.11
58467;BME280;44255;49.244;7.726;2023-04-27T07:46:54;98491.59;;;12.44;50.89
58467;BME280;44255;49.244;7.726;2023-04-27T07:49:22;98487.97;;;12.46;49.69
58467;BME280;44255;49.244;7.726;2023-04-27T07:51:49;98488.25;;;12.61;50.01
58467;BME280;44255;49.244;7.726;2023-04-27T07:54:14;98490.09;;;12.59;47.74
58467;BME280;44255;49.244;7.726;2023-04-27T07:56:41;98493.09;;;12.72;48.69
58467;BME280;44255;49.244;7.726;2023-04-27T07:59:06;98495.53;;;12.35;48.05
58467;BME280;44255;49.244;7.726;2023-04-27T08:01:31;98487.47;;;12.36;47.49
58467;BME280;44255;49.244;7.726;2023-04-27T08:03:59;98484.78;;;12.59;47.47
58467;BME280;44255;49.244;7.726;2023-04-27T08:06:24;98490.44;;;12.72;47.37
58467;BME280;44255;49.244;7.726;2023-04-27T08:08:50;98490.28;;;12.75;47.00
58467;BME280;44255;49.244;7.726;2023-04-27T08:11:15;98488.63;;;12.93;47.25
58467;BME280;44255;49.244;7.726;2023-04-27T08:13:41;98488.53;;;12.94;46.94
58467;BME280;44255;49.244;7.726;2023-04-27T08:16:06;98485.00;;;13.34;46.84
58467;BME280;44255;49.244;7.726;2023-04-27T08:18:32;98485.66;;;13.39;46.71
58467;BME280;44255;49.244;7.726;2023-04-27T08:20:57;98475.84;;;13.20;45.01
58467;BME280;44255;49.244;7.726;2023-04-27T08:23:25;98482.13;;;13.38;45.50
58467;BME280;44255;49.244;7.726;2023-04-27T08:25:51;98483.00;;;13.58;45.00
58467;BME280;44255;49.244;7.726;2023-04-27T08:28:17;98485.84;;;13.74;45.20
58467;BME280;44255;49.244;7.726;2023-04-27T08:30:42;98485.09;;;13.51;43.75
58467;BME280;44255;49.244;7.726;2023-04-27T08:33:08;98486.00;;;13.71;43.15
58467;BME280;44255;49.244;7.726;2023-04-27T08:35:33;98483.88;;;14.15;44.96
58467;BME280;44255;49.244;7.726;2023-04-27T08:37:58;98480.75;;;13.87;42.23
58467;BME280;44255;49.244;7.726;2023-04-27T08:40:24;98482.31;;;14.11;43.48
58467;BME280;44255;49.244;7.726;2023-04-27T08:42:57;98481.16;;;14.34;43.74
58467;BME280;44255;49.244;7.726;2023-04-27T08:45:24;98480.06;;;14.56;44.54
58467;BME280;44255;49.244;7.726;2023-04-27T08:47:51;98467.56;;;14.56;44.08
58467;BME280;44255;49.244;7.726;2023-04-27T08:50:17;98469.84;;;14.64;45.54
58467;BME280;44255;49.244;7.726;2023-04-27T08:52:46;98465.59;;;14.77;45.43
58467;BME280;44255;49.244;7.726;2023-04-27T08:55:12;98467.03;;;14.85;44.17
58467;BME280;44255;49.244;7.726;2023-04-27T08:57:37;98466.69;;;14.91;44.89
58467;BME280;44255;49.244;7.726;2023-04-27T09:00:03;98461.53;;;15.04;45.01
58467;BME280;44255;49.244;7.726;2023-04-27T09:02:45;98464.38;;;15.01;44.31
58467;BME280;44255;49.244;7.726;2023-04-27T09:05:15;98458.25;;;14.99;44.26
58467;BME280;44255;49.244;7.726;2023-04-27T09:07:40;98463.44;;;15.02;43.22
58467;BME280;44255;49.244;7.726;2023-04-27T09:10:05;98463.84;;;15.28;44.74
58467;BME280;44255;49.244;7.726;2023-04-27T09:12:31;98467.66;;;15.40;43.58
58467;BME280;44255;49.244;7.726;2023-04-27T09:14:58;98455.38;;;15.35;43.24
58467;BME280;44255;49.244;7.726;2023-04-27T09:17:24;98467.00;;;15.52;42.11
58467;BME280;44255;49.244;7.726;2023-04-27T09:19:50;98462.50;;;14.85;41.14
58467;BME280;44255;49.244;7.726;2023-04-27T09:22:15;98461.53;;;15.04;41.54
58467;BME280;44255;49.244;7.726;2023-04-27T09:24:50;98455.69;;;15.29;41.25
58467;BME280;44255;49.244;7.726;2023-04-27T09:27:20;98459.19;;;15.47;41.20
58467;BME280;44255;49.244;7.726;2023-04-27T09:29:48;98452.81;;;15.66;40.10
58467;BME280;44255;49.244;7.726;2023-04-27T09:32:17;98449.44;;;15.78;39.61
58467;BME280;44255;49.244;7.726;2023-04-27T09:34:44;98457.47;;;15.78;40.26
58467;BME280;44255;49.244;7.726;2023-04-27T09:37:10;98460.34;;;15.75;39.43
58467;BME280;44255;49.244;7.726;2023-04-27T09:39:36;98457.66;;;15.75;40.23
58467;BME280;44255;49.244;7.726;2023-04-27T09:42:02;98464.81;;;15.27;39.71
58467;BME280;44255;49.244;7.726;2023-04-27T09:44:29;98459.03;;;15.34;40.08
58467;BME280;44255;49.244;7.726;2023-04-27T09:46:57;98462.81;;;14.97;40.13
58467;BME280;44255;49.244;7.726;2023-04-27T09:49:23;98451.75;;;15.36;39.70
58467;BME280;44255;49.244;7.726;2023-04-27T09:51:49;98447.53;;;15.48;39.64
58467;BME280;44255;49.244;7.726;2023-04-27T09:54:14;98441.91;;;15.85;39.50
58467;BME280;44255;49.244;7.726;2023-04-27T09:56:59;98444.34;;;15.90;39.26
58467;BME280;44255;49.244;7.726;2023-04-27T09:59:45;98449.88;;;15.71;39.26
58467;BME280;44255;49.244;7.726;2023-04-27T10:02:15;98451.84;;;15.83;38.74
58467;BME280;44255;49.244;7.726;2023-04-27T10:07:27;98442.22;;;16.27;38.43
58467;BME280;44255;49.244;7.726;2023-04-27T10:09:53;98452.34;;;16.22;38.65
58467;BME280;44255;49.244;7.726;2023-04-27T10:12:34;98445.41;;;16.48;39.52
58467;BME280;44255;49.244;7.726;2023-04-27T10:15:12;98445.75;;;17.03;41.46
58467;BME280;44255;49.244;7.726;2023-04-27T10:17:45;98446.00;;;17.42;42.00
58467;BME280;44255;49.244;7.726;2023-04-27T10:20:10;98446.59;;;17.33;38.54
58467;BME280;44255;49.244;7.726;2023-04-27T10:25:24;98446.00;;;17.42;38.88
58467;BME280;44255;49.244;7.726;2023-04-27T10:27:58;98441.50;;;17.43;39.02
58467;BME280;44255;49.244;7.726;2023-04-27T10:30:34;98443.91;;;17.33;38.25
58467;BME280;44255;49.244;7.726;2023-04-27T10:33:05;98443.91;;;17.47;39.89
58467;BME280;44255;49.244;7.726;2023-04-27T10:38:13;98433.59;;;17.54;38.71
58467;BME280;44255;49.244;7.726;2023-04-27T10:40:39;98429.22;;;17.81;40.14
58467;BME280;44255;49.244;7.726;2023-04-27T10:43:09;98422.97;;;17.80;38.62
58467;BME280;44255;49.244;7.726;2023-04-27T10:45:35;98422.69;;;17.85;38.99
58467;BME280;44255;49.244;7.726;2023-04-27T10:48:00;98421.47;;;17.76;38.63
58467;BME280;44255;49.244;7.726;2023-04-27T10:50:26;98420.69;;;18.01;38.57
58467;BME280;44255;49.244;7.726;2023-04-27T10:52:51;98414.06;;;18.07;37.83
58467;BME280;44255;49.244;7.726;2023-04-27T10:55:21;98419.56;;;17.91;38.05
58467;BME280;44255;49.244;7.726;2023-04-27T10:57:52;98413.75;;;16.84;37.51
58467;BME280;44255;49.244;7.726;2023-04-27T11:00:30;98414.63;;;17.28;37.26
58467;BME280;44255;49.244;7.726;2023-04-27T11:03:08;98403.81;;;17.57;37.79
58467;BME280;44255;49.244;7.726;2023-04-27T11:05:35;98403.44;;;17.49;37.28
58467;BME280;44255;49.244;7.726;2023-04-27T11:08:08;98413.66;;;17.15;37.28
58467;BME280;44255;49.244;7.726;2023-04-27T11:10:37;98415.69;;;17.11;37.27
58467;BME280;44255;49.244;7.726;2023-04-27T11:13:13;98408.22;;;17.16;37.27
58467;BME280;44255;49.244;7.726;2023-04-27T11:18:14;98392.34;;;17.68;38.24
58467;BME280;44255;49.244;7.726;2023-04-27T11:20:41;98394.59;;;17.89;38.58
58467;BME280;44255;49.244;7.726;2023-04-27T11:23:07;98385.91;;;17.98;39.01
58467;BME280;44255;49.244;7.726;2023-04-27T11:25:35;98378.78;;;18.25;39.28
58467;BME280;44255;49.244;7.726;2023-04-27T11:28:01;98381.56;;;18.23;37.26
58467;BME280;44255;49.244;7.726;2023-04-27T11:30:26;98380.19;;;18.30;38.43
58467;BME280;44255;49.244;7.726;2023-04-27T11:32:51;98377.25;;;18.20;38.10
58467;BME280;44255;49.244;7.726;2023-04-27T11:35:17;98381.91;;;18.31;37.99
58467;BME280;44255;49.244;7.726;2023-04-27T11:37:43;98375.75;;;18.29;37.75
58467;BME280;44255;49.244;7.726;2023-04-27T11:40:08;98371.69;;;18.62;36.71
58467;BME280;44255;49.244;7.726;2023-04-27T11:42:38;98386.53;;;18.29;36.08
58467;BME280;44255;49.244;7.726;2023-04-27T11:45:10;98379.84;;;18.09;36.25
58467;BME280;44255;49.244;7.726;2023-04-27T11:47:35;98377.69;;;18.14;35.91
58467;BME280;44255;49.244;7.726;2023-04-27T11:50:04;98372.47;;;18.77;36.16
58467;BME280;44255;49.244;7.726;2023-04-27T11:52:31;98367.59;;;19.22;36.32
58467;BME280;44255;49.244;7.726;2023-04-27T11:54:58;98364.69;;;18.99;35.37
58467;BME280;44255;49.244;7.726;2023-04-27T11:57:25;98369.13;;;19.13;35.14
58467;BME280;44255;49.244;7.726;2023-04-27T11:59:54;98362.28;;;19.95;33.80
58467;BME280;44255;49.244;7.726;2023-04-27T12:02:20;98344.84;;;21.05;31.51
58467;BME280;44255;49.244;7.726;2023-04-27T12:04:49;98351.44;;;20.66;32.12
58467;BME280;44255;49.244;7.726;2023-04-27T12:07:15;98346.50;;;21.51;32.82
58467;BME280;44255;49.244;7.726;2023-04-27T12:09:40;98339.69;;;22.34;32.13
58467;BME280;44255;49.244;7.726;2023-04-27T12:12:06;98339.94;;;23.35;30.74
58467;BME280;44255;49.244;7.726;2023-04-27T12:14:31;98335.03;;;23.99;30.47
58467;BME280;44255;49.244;7.726;2023-04-27T12:16:57;98333.41;;;23.48;30.58
58467;BME280;44255;49.244;7.726;2023-04-27T12:19:22;98343.25;;;22.55;31.11
58467;BME280;44255;49.244;7.726;2023-04-27T12:21:50;98352.06;;;21.04;32.46
58467;BME280;44255;49.244;7.726;2023-04-27T12:24:15;98355.19;;;20.41;32.17
58467;BME280;44255;49.244;7.726;2023-04-27T12:26:40;98350.41;;;20.44;32.59
58467;BME280;44255;49.244;7.726;2023-04-27T12:29:05;98352.50;;;19.19;33.97
58467;BME280;44255;49.244;7.726;2023-04-27T12:31:31;98353.56;;;19.29;33.77
58467;BME280;44255;49.244;7.726;2023-04-27T12:33:56;98348.63;;;19.10;34.77
58467;BME280;44255;49.244;7.726;2023-04-27T12:36:21;98350.78;;;18.92;35.70
58467;BME280;44255;49.244;7.726;2023-04-27T12:38:47;98352.47;;;18.15;36.44
58467;BME280;44255;49.244;7.726;2023-04-27T12:41:12;98342.72;;;18.53;35.44
58467;BME280;44255;49.244;7.726;2023-04-27T12:43:37;98344.31;;;18.17;35.79
58467;BME280;44255;49.244;7.726;2023-04-27T12:46:05;98336.66;;;17.96;36.64
58467;BME280;44255;49.244;7.726;2023-04-27T12:48:30;98339.38;;;18.24;35.89
58467;BME280;44255;49.244;7.726;2023-04-27T12:50:56;98330.44;;;18.49;35.65
58467;BME280;44255;49.244;7.726;2023-04-27T12:53:21;98334.19;;;18.72;34.57
58467;BME280;44255;49.244;7.726;2023-04-27T12:55:46;98322.88;;;19.06;35.56
58467;BME280;44255;49.244;7.726;2023-04-27T12:58:12;98340.31;;;19.13;35.65
58467;BME280;44255;49.244;7.726;2023-04-27T13:00:37;98331.75;;;19.32;35.76
58467;BME280;44255;49.244;7.726;2023-04-27T13:03:02;98331.03;;;19.04;34.99
58467;BME280;44255;49.244;7.726;2023-04-27T13:05:28;98323.38;;;19.11;35.38
58467;BME280;44255;49.244;7.726;2023-04-27T13:07:53;98332.13;;;18.76;35.83
58467;BME280;44255;49.244;7.726;2023-04-27T13:10:19;98334.81;;;18.24;36.45
58467;BME280;44255;49.244;7.726;2023-04-27T13:12:44;98343.03;;;18.61;36.79
58467;BME280;44255;49.244;7.726;2023-04-27T13:15:10;98337.41;;;18.65;36.84
58467;BME280;44255;49.244;7.726;2023-04-27T13:17:35;98336.03;;;18.46;36.55
58467;BME280;44255;49.244;7.726;2023-04-27T13:20:01;98331.84;;;18.68;36.41
58467;BME280;44255;49.244;7.726;2023-04-27T13:22:26;98334.72;;;19.03;35.49
58467;BME280;44255;49.244;7.726;2023-04-27T13:24:52;98333.41;;;19.09;36.48
58467;BME280;44255;49.244;7.726;2023-04-27T13:27:17;98339.94;;;19.31;36.33
58467;BME280;44255;49.244;7.726;2023-04-27T13:29:42;98332.34;;;18.99;35.99
58467;BME280;44255;49.244;7.726;2023-04-27T13:32:08;98340.22;;;18.89;36.28
58467;BME280;44255;49.244;7.726;2023-04-27T13:34:33;98336.13;;;18.70;36.17
58467;BME280;44255;49.244;7.726;2023-04-27T13:36:58;98336.69;;;18.75;37.75
58467;BME280;44255;49.244;7.726;2023-04-27T13:39:24;98333.34;;;18.72;36.82
58467;BME280;44255;49.244;7.726;2023-04-27T13:41:49;98332.66;;;19.07;37.04
58467;BME280;44255;49.244;7.726;2023-04-27T13:44:15;98331.97;;;19.16;36.79
58467;BME280;44255;49.244;7.726;2023-04-27T13:46:40;98334.34;;;19.21;37.70
58467;BME280;44255;49.244;7.726;2023-04-27T13:49:05;98333.09;;;19.14;37.71
58467;BME280;44255;49.244;7.726;2023-04-27T13:51:31;98339.69;;;19.47;38.17
58467;BME280;44255;49.244;7.726;2023-04-27T13:53:56;98339.69;;;19.34;38.01
58467;BME280;44255;49.244;7.726;2023-04-27T13:56:22;98338.28;;;19.41;37.43
58467;BME280;44255;49.244;7.726;2023-04-27T13:58:47;98337.91;;;19.59;37.18
58467;BME280;44255;49.244;7.726;2023-04-27T14:01:12;98335.03;;;19.73;35.94
58467;BME280;44255;49.244;7.726;2023-04-27T14:03:37;98331.75;;;19.57;37.26
58467;BME280;44255;49.244;7.726;2023-04-27T14:06:03;98335.78;;;18.88;36.34
58467;BME280;44255;49.244;7.726;2023-04-27T14:08:28;98336.13;;;18.70;36.74
58467;BME280;44255;49.244;7.726;2023-04-27T14:10:53;98337.09;;;18.69;37.61
58467;BME280;44255;49.244;7.726;2023-04-27T14:13:19;98342.47;;;18.17;37.70
58467;BME280;44255;49.244;7.726;2023-04-27T14:15:45;98330.72;;;18.31;37.74
58467;BME280;44255;49.244;7.726;2023-04-27T14:18:10;98337.63;;;18.61;37.33
58467;BME280;44255;49.244;7.726;2023-04-27T14:20:37;98337.63;;;18.87;37.21
58467;BME280;44255;49.244;7.726;2023-04-27T14:23:04;98334.63;;;19.05;37.74
58467;BME280;44255;49.244;7.726;2023-04-27T14:25:30;98327.06;;;19.10;37.83
58467;BME280;44255;49.244;7.726;2023-04-27T14:28:03;98339.25;;;18.77;38.14
58467;BME280;44255;49.244;7.726;2023-04-27T14:30:32;98337.53;;;18.76;37.64
58467;BME280;44255;49.244;7.726;2023-04-27T14:32:58;98341.41;;;18.46;38.21
58467;BME280;44255;49.244;7.726;2023-04-27T14:35:23;98335.06;;;18.73;39.02
58467;BME280;44255;49.244;7.726;2023-04-27T14:37:52;98336.34;;;18.67;38.49
58467;BME280;44255;49.244;7.726;2023-04-27T14:40:18;98329.88;;;18.57;38.79
58467;BME280;44255;49.244;7.726;2023-04-27T14:42:43;98330.63;;;18.85;38.13
58467;BME280;44255;49.244;7.726;2023-04-27T14:45:09;98327.38;;;19.05;38.26
58467;BME280;44255;49.244;7.726;2023-04-27T14:47:35;98330.66;;;19.35;37.80
58467;BME280;44255;49.244;7.726;2023-04-27T14:50:00;98322.31;;;19.14;37.10
58467;BME280;44255;49.244;7.726;2023-04-27T14:52:26;98321.47;;;19.00;38.47
58467;BME280;44255;49.244;7.726;2023-04-27T14:54:51;98320.81;;;19.10;38.79
58467;BME280;44255;49.244;7.726;2023-04-27T14:57:17;98323.59;;;18.95;38.92
58467;BME280;44255;49.244;7.726;2023-04-27T14:59:42;98319.28;;;19.05;39.15
58467;BME280;44255;49.244;7.726;2023-04-27T15:02:08;98319.59;;;19.14;38.51
58467;BME280;44255;49.244;7.726;2023-04-27T15:04:33;98322.94;;;19.17;37.43
58467;BME280;44255;49.244;7.726;2023-04-27T15:06:59;98314.50;;;19.22;38.44
58467;BME280;44255;49.244;7.726;2023-04-27T15:09:25;98314.91;;;19.29;37.91
58467;BME280;44255;49.244;7.726;2023-04-27T15:11:50;98305.97;;;19.28;38.36
58467;BME280;44255;49.244;7.726;2023-04-27T15:14:16;98310.06;;;19.21;38.70
58467;BME280;44255;49.244;7.726;2023-04-27T15:16:41;98296.16;;;19.27;38.67
58467;BME280;44255;49.244;7.726;2023-04-27T15:19:06;98302.41;;;19.28;37.57
58467;BME280;44255;49.244;7.726;2023-04-27T15:21:32;98293.94;;;19.08;38.23
58467;BME280;44255;49.244;7.726;2023-04-27T15:23:57;98302.69;;;18.99;37.98
58467;BME280;44255;49.244;7.726;2023-04-27T15:26:24;98293.56;;;19.26;37.44
58467;BME280;44255;49.244;7.726;2023-04-27T15:28:50;98284.25;;;19.30;37.59
58467;BME280;44255;49.244;7.726;2023-04-27T15:31:16;98283.53;;;19.28;37.39
58467;BME280;44255;49.244;7.726;2023-04-27T15:33:41;98275.91;;;19.22;38.26
58467;BME280;44255;49.244;7.726;2023-04-27T15:36:06;98273.19;;;19.22;37.83
58467;BME280;44255;49.244;7.726;2023-04-27T15:38:32;98269.63;;;19.21;38.25
58467;BME280;44255;49.244;7.726;2023-04-27T15:40:57;98271.72;;;19.17;37.96
58467;BME280;44255;49.244;7.726;2023-04-27T15:43:22;98277.91;;;18.81;38.08
58467;BME280;44255;49.244;7.726;2023-04-27T15:45:47;98276.59;;;18.99;38.37
58467;BME280;44255;49.244;7.726;2023-04-27T15:48:13;98274.50;;;19.16;38.18
58467;BME280;44255;49.244;7.726;2023-04-27T15:50:39;98266.75;;;19.11;38.40
58467;BME280;44255;49.244;7.726;2023-04-27T15:53:04;98271.34;;;19.22;38.23
58467;BME280;44255;49.244;7.726;2023-04-27T15:55:30;98270.84;;;19.17;38.28
58467;BME280;44255;49.244;7.726;2023-04-27T15:57:55;98265.34;;;19.18;38.18
58467;BME280;44255;49.244;7.726;2023-04-27T16:00:21;98266.69;;;19.24;38.31
58467;BME280;44255;49.244;7.726;2023-04-27T16:02:47;98254.94;;;19.25;38.30
58467;BME280;44255;49.244;7.726;2023-04-27T16:05:13;98262.09;;;19.13;38.37
58467;BME280;44255;49.244;7.726;2023-04-27T16:07:43;98262.28;;;19.23;39.81
58467;BME280;44255;49.244;7.726;2023-04-27T16:10:09;98259.16;;;19.16;37.75
58467;BME280;44255;49.244;7.726;2023-04-27T16:12:34;98254.56;;;19.05;37.70
58467;BME280;44255;49.244;7.726;2023-04-27T16:15:00;98249.06;;;19.07;38.07
58467;BME280;44255;49.244;7.726;2023-04-27T16:17:27;98248.34;;;19.05;38.04
58467;BME280;44255;49.244;7.726;2023-04-27T16:19:53;98250.06;;;18.93;38.11
58467;BME280;44255;49.244;7.726;2023-04-27T16:22:18;98243.47;;;18.60;38.63
58467;BME280;44255;49.244;7.726;2023-04-27T16:24:43;98238.47;;;18.80;38.23
58467;BME280;44255;49.244;7.726;2023-04-27T16:27:09;98238.22;;;18.83;38.41
58467;BME280;44255;49.244;7.726;2023-04-27T16:29:34;98233.00;;;19.05;38.44
58467;BME280;44255;49.244;7.726;2023-04-27T16:32:00;98230.84;;;19.11;38.48
58467;BME280;44255;49.244;7.726;2023-04-27T16:34:25;98236.66;;;19.17;37.58
58467;BME280;44255;49.244;7.726;2023-04-27T16:36:51;98238.13;;;19.22;38.10
58467;BME280;44255;49.244;7.726;2023-04-27T16:39:17;98244.19;;;19.12;37.98